sensor_id;sensor_type;location;lat;lon;timestamp;temperature;humidity
11894;DHT22;6006;49.696;8.662;2023-04-25T00:00:36;7.80;99.90
11894;DHT22;6006;49.696;8.662;2023-04-25T00:03:02;7.90;99.90
11894;DHT22;6006;49.696;8.662;2023-04-25T00:05:33;7.80;99.90
11894;DHT22;6006;49.696;8.662;2023-04-25T00:08:02;7.80;99.90
11894;DHT22;6006;49.696;8.662;2023-04-25T00:10:30;7.80;99.90
11894;DHT22;6006;49.696;8.662;2023-04-25T00:12:57;7.80;99.90
11894;DHT22;6006;49.696;8.662;2023-04-25T00:15:24;7.90;99.90
11894;DHT22;6006;49.696;8.662;2023-04-25T00:17:51;7.90;99.90
11894;DHT22;6006;49.696;8.662;2023-04-25T00:20:19;7.90;99.90
11894;DHT22;6006;49.696;8.662;2023-04-25T00:22:48;7.90;99.90
11894;DHT22;6006;49.696;8.662;2023-04-25T00:25:15;7.90;99.90
11894;DHT22;6006;49.696;8.662;2023-04-25T00:27:42;7.90;99.90
11894;DHT22;6006;49.696;8.662;2023-04-25T00:30:10;7.90;99.90
11894;DHT22;6006;49.696;8.662;2023-04-25T00:32:37;7.90;99.90
11894;DHT22;6006;49.696;8.662;2023-04-25T00:35:04;7.90;99.90
11894;DHT22;6006;49.696;8.662;2023-04-25T00:37:31;7.90;99.90
11894;DHT22;6006;49.696;8.662;2023-04-25T00:39:59;7.90;99.90
11894;DHT22;6006;49.696;8.662;2023-04-25T00:42:27;8.00;99.90
11894;DHT22;6006;49.696;8.662;2023-04-25T00:44:55;7.90;99.90
11894;DHT22;6006;49.696;8.662;2023-04-25T00:47:22;7.90;99.90
11894;DHT22;6006;49.696;8.662;2023-04-25T00:49:50;7.90;99.90
11894;DHT22;6006;49.696;8.662;2023-04-25T00:52:19;7.90;99.90
11894;DHT22;6006;49.696;8.662;2023-04-25T00:54:46;7.90;99.90
11894;DHT22;6006;49.696;8.662;2023-04-25T00:57:14;7.90;99.90
11894;DHT22;6006;49.696;8.662;2023-04-25T00:59:45;7.80;99.90
11894;DHT22;6006;49.696;8.662;2023-04-25T01:02:12;7.80;99.90
11894;DHT22;6006;49.696;8.662;2023-04-25T01:04:39;7.80;99.90
11894;DHT22;6006;49.696;8.662;2023-04-25T01:07:06;7.80;99.90
11894;DHT22;6006;49.696;8.662;2023-04-25T01:09:34;7.80;99.90
11894;DHT22;6006;49.696;8.662;2023-04-25T01:12:01;7.80;99.90
11894;DHT22;6006;49.696;8.662;2023-04-25T01:14:30;7.80;99.90
11894;DHT22;6006;49.696;8.662;2023-04-25T01:16:57;7.90;99.90
11894;DHT22;6006;49.696;8.662;2023-04-25T01:19:24;7.90;99.90
11894;DHT22;6006;49.696;8.662;2023-04-25T01:21:53;7.90;99.90
11894;DHT22;6006;49.696;8.662;2023-04-25T01:24:20;7.90;99.90
11894;DHT22;6006;49.696;8.662;2023-04-25T01:26:47;7.80;99.90
11894;DHT22;6006;49.696;8.662;2023-04-25T01:29:16;7.90;99.90
11894;DHT22;6006;49.696;8.662;2023-04-25T01:31:44;7.90;99.90
11894;DHT22;6006;49.696;8.662;2023-04-25T01:34:12;7.80;99.90
11894;DHT22;6006;49.696;8.662;2023-04-25T01:36:39;7.80;99.90
11894;DHT22;6006;49.696;8.662;2023-04-25T01:39:08;7.80;99.90
11894;DHT22;6006;49.696;8.662;2023-04-25T01:41:35;7.90;99.90
11894;DHT22;6006;49.696;8.662;2023-04-25T01:44:03;7.90;99.90
11894;DHT22;6006;49.696;8.662;2023-04-25T01:46:30;7.80;99.90
11894;DHT22;6006;49.696;8.662;2023-04-25T01:48:57;7.90;99.90
11894;DHT22;6006;49.696;8.662;2023-04-25T01:51:24;7.90;99.90
11894;DHT22;6006;49.696;8.662;2023-04-25T01:53:51;7.90;99.90
11894;DHT22;6006;49.696;8.662;2023-04-25T01:56:19;7.90;99.90
11894;DHT22;6006;49.696;8.662;2023-04-25T01:58:46;7.90;99.90
11894;DHT22;6006;49.696;8.662;2023-04-25T02:01:13;7.90;99.90
11894;DHT22;6006;49.696;8.662;2023-04-25T02:03:40;7.90;99.90
11894;DHT22;6006;49.696;8.662;2023-04-25T02:06:06;7.90;99.90
11894;DHT22;6006;49.696;8.662;2023-04-25T02:08:33;7.90;99.90
11894;DHT22;6006;49.696;8.662;2023-04-25T02:11:00;7.90;99.90
11894;DHT22;6006;49.696;8.662;2023-04-25T02:13:30;7.90;99.90
11894;DHT22;6006;49.696;8.662;2023-04-25T02:15:57;7.80;99.90
11894;DHT22;6006;49.696;8.662;2023-04-25T02:18:23;7.80;99.90
11894;DHT22;6006;49.696;8.662;2023-04-25T02:20:51;7.80;99.90
11894;DHT22;6006;49.696;8.662;2023-04-25T02:23:18;7.80;99.90
11894;DHT22;6006;49.696;8.662;2023-04-25T02:25:45;7.80;99.90
11894;DHT22;6006;49.696;8.662;2023-04-25T02:28:12;7.80;99.90
11894;DHT22;6006;49.696;8.662;2023-04-25T02:30:40;7.90;99.90
11894;DHT22;6006;49.696;8.662;2023-04-25T02:33:07;7.80;99.90
11894;DHT22;6006;49.696;8.662;2023-04-25T02:35:34;7.90;99.90
11894;DHT22;6006;49.696;8.662;2023-04-25T02:38:00;7.90;99.90
11894;DHT22;6006;49.696;8.662;2023-04-25T02:40:27;8.00;99.90
11894;DHT22;6006;49.696;8.662;2023-04-25T02:42:54;7.90;99.90
11894;DHT22;6006;49.696;8.662;2023-04-25T02:45:21;7.80;99.90
11894;DHT22;6006;49.696;8.662;2023-04-25T02:47:49;7.80;99.90
11894;DHT22;6006;49.696;8.662;2023-04-25T02:50:16;7.80;99.90
11894;DHT22;6006;49.696;8.662;2023-04-25T02:52:44;7.90;99.90
11894;DHT22;6006;49.696;8.662;2023-04-25T02:55:11;7.80;99.90
11894;DHT22;6006;49.696;8.662;2023-04-25T02:57:38;7.80;99.90
11894;DHT22;6006;49.696;8.662;2023-04-25T03:00:06;7.80;99.90
11894;DHT22;6006;49.696;8.662;2023-04-25T03:02:33;7.80;99.90
11894;DHT22;6006;49.696;8.662;2023-04-25T03:05:02;7.70;99.90
11894;DHT22;6006;49.696;8.662;2023-04-25T03:07:28;7.70;99.90
11894;DHT22;6006;49.696;8.662;2023-04-25T03:09:55;7.70;99.90
11894;DHT22;6006;49.696;8.662;2023-04-25T03:12:22;7.70;99.90
11894;DHT22;6006;49.696;8.662;2023-04-25T03:14:49;7.80;99.90
11894;DHT22;6006;49.696;8.662;2023-04-25T03:17:16;7.80;99.90
11894;DHT22;6006;49.696;8.662;2023-04-25T03:19:43;7.70;99.90
11894;DHT22;6006;49.696;8.662;2023-04-25T03:22:11;7.70;99.90
11894;DHT22;6006;49.696;8.662;2023-04-25T03:24:38;7.70;99.90
11894;DHT22;6006;49.696;8.662;2023-04-25T03:27:05;7.80;99.90
11894;DHT22;6006;49.696;8.662;2023-04-25T03:29:32;7.70;99.90
11894;DHT22;6006;49.696;8.662;2023-04-25T03:31:59;7.80;99.90
11894;DHT22;6006;49.696;8.662;2023-04-25T03:34:26;7.70;99.90
11894;DHT22;6006;49.696;8.662;2023-04-25T03:36:53;7.80;99.90
11894;DHT22;6006;49.696;8.662;2023-04-25T03:39:21;7.70;99.90
11894;DHT22;6006;49.696;8.662;2023-04-25T03:41:48;7.70;99.90
11894;DHT22;6006;49.696;8.662;2023-04-25T03:44:15;7.70;99.90
11894;DHT22;6006;49.696;8.662;2023-04-25T03:46:42;7.80;99.90
11894;DHT22;6006;49.696;8.662;2023-04-25T03:49:08;7.80;99.90
11894;DHT22;6006;49.696;8.662;2023-04-25T03:51:35;7.80;99.90
11894;DHT22;6006;49.696;8.662;2023-04-25T03:54:03;7.80;99.90
11894;DHT22;6006;49.696;8.662;2023-04-25T03:56:31;7.80;99.90
11894;DHT22;6006;49.696;8.662;2023-04-25T03:58:58;7.80;99.90
11894;DHT22;6006;49.696;8.662;2023-04-25T04:01:25;7.90;99.90
11894;DHT22;6006;49.696;8.662;2023-04-25T04:03:51;7.80;99.90
11894;DHT22;6006;49.696;8.662;2023-04-25T04:06:18;7.80;99.90
11894;DHT22;6006;49.696;8.662;2023-04-25T04:08:46;7.80;99.90
11894;DHT22;6006;49.696;8.662;2023-04-25T04:11:13;7.70;99.90
11894;DHT22;6006;49.696;8.662;2023-04-25T04:13:41;7.70;99.90
11894;DHT22;6006;49.696;8.662;2023-04-25T04:16:08;7.70;99.90
11894;DHT22;6006;49.696;8.662;2023-04-25T04:18:35;7.70;99.90
11894;DHT22;6006;49.696;8.662;2023-04-25T04:21:01;7.80;99.90
11894;DHT22;6006;49.696;8.662;2023-04-25T04:23:28;7.80;99.90
11894;DHT22;6006;49.696;8.662;2023-04-25T04:25:55;7.80;99.90
11894;DHT22;6006;49.696;8.662;2023-04-25T04:28:22;7.80;99.90
11894;DHT22;6006;49.696;8.662;2023-04-25T04:30:50;7.80;99.90
11894;DHT22;6006;49.696;8.662;2023-04-25T04:33:18;7.80;99.90
11894;DHT22;6006;49.696;8.662;2023-04-25T04:35:45;7.80;99.90
11894;DHT22;6006;49.696;8.662;2023-04-25T04:38:14;7.90;99.90
11894;DHT22;6006;49.696;8.662;2023-04-25T04:40:41;7.90;99.90
11894;DHT22;6006;49.696;8.662;2023-04-25T04:43:08;7.90;99.90
11894;DHT22;6006;49.696;8.662;2023-04-25T04:45:36;7.90;99.90
11894;DHT22;6006;49.696;8.662;2023-04-25T04:48:05;7.90;99.90
11894;DHT22;6006;49.696;8.662;2023-04-25T04:50:32;7.90;99.90
11894;DHT22;6006;49.696;8.662;2023-04-25T04:52:59;7.90;99.90
11894;DHT22;6006;49.696;8.662;2023-04-25T04:55:26;7.90;99.90
11894;DHT22;6006;49.696;8.662;2023-04-25T04:57:53;7.90;99.90
11894;DHT22;6006;49.696;8.662;2023-04-25T05:00:20;7.90;99.90
11894;DHT22;6006;49.696;8.662;2023-04-25T05:02:47;7.90;99.90
11894;DHT22;6006;49.696;8.662;2023-04-25T05:05:15;7.90;99.90
11894;DHT22;6006;49.696;8.662;2023-04-25T05:07:42;8.00;99.90
11894;DHT22;6006;49.696;8.662;2023-04-25T05:10:09;8.00;99.90
11894;DHT22;6006;49.696;8.662;2023-04-25T05:12:36;8.00;99.90
11894;DHT22;6006;49.696;8.662;2023-04-25T05:15:04;8.00;99.90
11894;DHT22;6006;49.696;8.662;2023-04-25T05:17:31;8.00;99.90
11894;DHT22;6006;49.696;8.662;2023-04-25T05:19:58;8.00;99.90
11894;DHT22;6006;49.696;8.662;2023-04-25T05:22:26;8.00;99.90
11894;DHT22;6006;49.696;8.662;2023-04-25T05:24:53;8.10;99.90
11894;DHT22;6006;49.696;8.662;2023-04-25T05:27:20;8.00;99.90
11894;DHT22;6006;49.696;8.662;2023-04-25T05:29:47;8.00;99.90
11894;DHT22;6006;49.696;8.662;2023-04-25T05:32:14;7.90;99.90
11894;DHT22;6006;49.696;8.662;2023-04-25T05:34:40;7.90;99.90
11894;DHT22;6006;49.696;8.662;2023-04-25T05:37:07;8.00;99.90
11894;DHT22;6006;49.696;8.662;2023-04-25T05:39:36;8.00;99.90
11894;DHT22;6006;49.696;8.662;2023-04-25T05:42:02;8.00;99.90
11894;DHT22;6006;49.696;8.662;2023-04-25T05:44:30;8.10;99.90
11894;DHT22;6006;49.696;8.662;2023-04-25T05:46:57;8.10;99.90
11894;DHT22;6006;49.696;8.662;2023-04-25T05:49:24;8.10;99.90
11894;DHT22;6006;49.696;8.662;2023-04-25T05:51:51;8.10;99.90
11894;DHT22;6006;49.696;8.662;2023-04-25T05:54:18;8.00;99.90
11894;DHT22;6006;49.696;8.662;2023-04-25T05:56:46;7.90;99.90
11894;DHT22;6006;49.696;8.662;2023-04-25T05:59:13;8.10;99.90
11894;DHT22;6006;49.696;8.662;2023-04-25T06:01:39;8.20;99.90
11894;DHT22;6006;49.696;8.662;2023-04-25T06:04:06;8.30;99.90
11894;DHT22;6006;49.696;8.662;2023-04-25T06:06:33;8.40;99.90
11894;DHT22;6006;49.696;8.662;2023-04-25T06:09:00;8.30;99.90
11894;DHT22;6006;49.696;8.662;2023-04-25T06:11:27;8.10;99.90
11894;DHT22;6006;49.696;8.662;2023-04-25T06:13:55;8.30;99.90
11894;DHT22;6006;49.696;8.662;2023-04-25T06:16:22;8.30;99.90
11894;DHT22;6006;49.696;8.662;2023-04-25T06:18:51;8.40;99.90
11894;DHT22;6006;49.696;8.662;2023-04-25T06:21:18;8.40;99.90
11894;DHT22;6006;49.696;8.662;2023-04-25T06:23:45;8.50;99.90
11894;DHT22;6006;49.696;8.662;2023-04-25T06:26:11;8.50;99.90
11894;DHT22;6006;49.696;8.662;2023-04-25T06:28:38;8.40;99.90
11894;DHT22;6006;49.696;8.662;2023-04-25T06:31:07;8.50;99.90
11894;DHT22;6006;49.696;8.662;2023-04-25T06:33:33;8.60;99.90
11894;DHT22;6006;49.696;8.662;2023-04-25T06:36:00;8.50;39.30
11894;DHT22;6006;49.696;8.662;2023-04-25T06:38:27;8.40;1.00
11894;DHT22;6006;49.696;8.662;2023-04-25T06:40:54;8.40;1.00
11894;DHT22;6006;49.696;8.662;2023-04-25T06:43:21;8.30;1.00
11894;DHT22;6006;49.696;8.662;2023-04-25T06:45:47;8.30;1.00
11894;DHT22;6006;49.696;8.662;2023-04-25T06:48:16;8.40;7.20
11894;DHT22;6006;49.696;8.662;2023-04-25T06:50:42;8.40;3.80
11894;DHT22;6006;49.696;8.662;2023-04-25T06:53:09;8.10;99.90
11894;DHT22;6006;49.696;8.662;2023-04-25T06:55:37;8.00;99.90
11894;DHT22;6006;49.696;8.662;2023-04-25T06:58:03;8.00;99.90
11894;DHT22;6006;49.696;8.662;2023-04-25T07:00:30;7.90;99.90
11894;DHT22;6006;49.696;8.662;2023-04-25T07:02:57;8.10;99.90
11894;DHT22;6006;49.696;8.662;2023-04-25T07:05:26;8.30;99.90
11894;DHT22;6006;49.696;8.662;2023-04-25T07:07:52;8.50;99.90
11894;DHT22;6006;49.696;8.662;2023-04-25T07:10:19;8.60;99.90
11894;DHT22;6006;49.696;8.662;2023-04-25T07:12:46;8.50;99.90
11894;DHT22;6006;49.696;8.662;2023-04-25T07:15:13;8.50;99.90
11894;DHT22;6006;49.696;8.662;2023-04-25T07:17:40;8.80;99.90
11894;DHT22;6006;49.696;8.662;2023-04-25T07:20:08;9.00;1.00
11894;DHT22;6006;49.696;8.662;2023-04-25T07:22:37;8.90;34.90
11894;DHT22;6006;49.696;8.662;2023-04-25T07:25:04;9.00;27.80
11894;DHT22;6006;49.696;8.662;2023-04-25T07:27:31;9.30;16.10
11894;DHT22;6006;49.696;8.662;2023-04-25T07:29:58;9.10;1.00
11894;DHT22;6006;49.696;8.662;2023-04-25T07:32:25;9.30;5.70
11894;DHT22;6006;49.696;8.662;2023-04-25T07:34:52;9.30;1.00
11894;DHT22;6006;49.696;8.662;2023-04-25T07:37:19;9.30;1.00
11894;DHT22;6006;49.696;8.662;2023-04-25T07:39:47;9.50;1.00
11894;DHT22;6006;49.696;8.662;2023-04-25T07:42:14;9.40;99.90
11894;DHT22;6006;49.696;8.662;2023-04-25T07:44:41;9.40;1.00
11894;DHT22;6006;49.696;8.662;2023-04-25T07:47:08;9.50;1.00
11894;DHT22;6006;49.696;8.662;2023-04-25T07:49:36;9.50;1.00
11894;DHT22;6006;49.696;8.662;2023-04-25T07:52:04;9.40;99.90
11894;DHT22;6006;49.696;8.662;2023-04-25T07:54:31;9.60;1.00
11894;DHT22;6006;49.696;8.662;2023-04-25T07:57:00;9.60;99.90
11894;DHT22;6006;49.696;8.662;2023-04-25T07:59:27;9.70;99.90
11894;DHT22;6006;49.696;8.662;2023-04-25T08:01:55;10.00;99.90
11894;DHT22;6006;49.696;8.662;2023-04-25T08:04:22;10.10;99.90
11894;DHT22;6006;49.696;8.662;2023-04-25T08:06:49;10.40;99.90
11894;DHT22;6006;49.696;8.662;2023-04-25T08:09:16;10.50;1.00
11894;DHT22;6006;49.696;8.662;2023-04-25T08:11:43;10.60;1.00
11894;DHT22;6006;49.696;8.662;2023-04-25T08:14:11;9.90;1.00
11894;DHT22;6006;49.696;8.662;2023-04-25T08:16:38;10.00;99.90
11894;DHT22;6006;49.696;8.662;2023-04-25T08:19:05;10.10;99.90
11894;DHT22;6006;49.696;8.662;2023-04-25T08:21:32;10.10;1.00
11894;DHT22;6006;49.696;8.662;2023-04-25T08:23:59;10.30;1.00
11894;DHT22;6006;49.696;8.662;2023-04-25T08:26:26;9.70;99.90
11894;DHT22;6006;49.696;8.662;2023-04-25T08:28:53;9.50;99.90
11894;DHT22;6006;49.696;8.662;2023-04-25T08:31:21;10.00;1.00
11894;DHT22;6006;49.696;8.662;2023-04-25T08:33:47;10.40;22.30
11894;DHT22;6006;49.696;8.662;2023-04-25T08:36:16;10.40;1.00
11894;DHT22;6006;49.696;8.662;2023-04-25T08:38:44;10.20;1.00
11894;DHT22;6006;49.696;8.662;2023-04-25T08:41:11;10.60;1.00
11894;DHT22;6006;49.696;8.662;2023-04-25T08:43:42;10.60;99.90
11894;DHT22;6006;49.696;8.662;2023-04-25T08:46:09;10.10;99.90
11894;DHT22;6006;49.696;8.662;2023-04-25T08:48:40;10.10;1.00
11894;DHT22;6006;49.696;8.662;2023-04-25T08:51:10;10.10;1.00
11894;DHT22;6006;49.696;8.662;2023-04-25T08:53:37;10.20;99.90
11894;DHT22;6006;49.696;8.662;2023-04-25T08:56:08;10.70;99.90
11894;DHT22;6006;49.696;8.662;2023-04-25T08:58:38;11.00;99.90
11894;DHT22;6006;49.696;8.662;2023-04-25T09:01:06;10.90;99.90
11894;DHT22;6006;49.696;8.662;2023-04-25T09:03:33;11.10;99.90
11894;DHT22;6006;49.696;8.662;2023-04-25T09:06:02;11.50;48.10
11894;DHT22;6006;49.696;8.662;2023-04-25T09:08:29;11.00;99.90
11894;DHT22;6006;49.696;8.662;2023-04-25T09:10:56;10.60;99.90
11894;DHT22;6006;49.696;8.662;2023-04-25T09:13:27;9.70;1.00
11894;DHT22;6006;49.696;8.662;2023-04-25T09:15:55;10.10;99.90
11894;DHT22;6006;49.696;8.662;2023-04-25T09:18:23;11.30;99.90
11894;DHT22;6006;49.696;8.662;2023-04-25T09:20:52;11.90;1.00
11894;DHT22;6006;49.696;8.662;2023-04-25T09:23:21;11.30;1.00
11894;DHT22;6006;49.696;8.662;2023-04-25T09:25:50;11.20;13.40
11894;DHT22;6006;49.696;8.662;2023-04-25T09:28:23;10.90;1.00
11894;DHT22;6006;49.696;8.662;2023-04-25T09:30:55;10.40;1.00
11894;DHT22;6006;49.696;8.662;2023-04-25T09:33:27;10.00;99.90
11894;DHT22;6006;49.696;8.662;2023-04-25T09:36:01;10.10;99.90
11894;DHT22;6006;49.696;8.662;2023-04-25T09:38:30;10.30;1.00
11894;DHT22;6006;49.696;8.662;2023-04-25T09:40:58;10.50;99.90
11894;DHT22;6006;49.696;8.662;2023-04-25T09:43:26;11.90;36.20
11894;DHT22;6006;49.696;8.662;2023-04-25T09:45:54;12.60;1.00
11894;DHT22;6006;49.696;8.662;2023-04-25T09:48:24;11.90;1.00
11894;DHT22;6006;49.696;8.662;2023-04-25T09:51:04;11.20;99.90
11894;DHT22;6006;49.696;8.662;2023-04-25T09:53:32;11.40;99.90
11894;DHT22;6006;49.696;8.662;2023-04-25T09:56:00;11.70;99.90
11894;DHT22;6006;49.696;8.662;2023-04-25T09:58:31;12.10;1.00
11894;DHT22;6006;49.696;8.662;2023-04-25T10:01:00;12.40;1.00
11894;DHT22;6006;49.696;8.662;2023-04-25T10:03:29;11.60;1.00
11894;DHT22;6006;49.696;8.662;2023-04-25T10:05:58;11.20;1.00
11894;DHT22;6006;49.696;8.662;2023-04-25T10:08:30;11.40;99.90
11894;DHT22;6006;49.696;8.662;2023-04-25T10:11:00;11.60;1.00
11894;DHT22;6006;49.696;8.662;2023-04-25T10:13:28;11.40;1.00
11894;DHT22;6006;49.696;8.662;2023-04-25T10:15:57;10.80;1.00
11894;DHT22;6006;49.696;8.662;2023-04-25T10:18:24;10.40;31.10
11894;DHT22;6006;49.696;8.662;2023-04-25T10:20:53;10.30;1.00
11894;DHT22;6006;49.696;8.662;2023-04-25T10:23:20;10.40;99.90
11894;DHT22;6006;49.696;8.662;2023-04-25T10:25:48;10.60;1.00
11894;DHT22;6006;49.696;8.662;2023-04-25T10:28:17;10.90;99.90
11894;DHT22;6006;49.696;8.662;2023-04-25T10:30:59;11.00;99.90
11894;DHT22;6006;49.696;8.662;2023-04-25T10:33:35;11.00;1.00
11894;DHT22;6006;49.696;8.662;2023-04-25T10:36:12;11.40;1.00
11894;DHT22;6006;49.696;8.662;2023-04-25T10:38:39;11.10;1.00
11894;DHT22;6006;49.696;8.662;2023-04-25T10:41:07;11.30;1.00
11894;DHT22;6006;49.696;8.662;2023-04-25T10:43:37;11.20;99.90
11894;DHT22;6006;49.696;8.662;2023-04-25T10:46:16;11.30;1.00
11894;DHT22;6006;49.696;8.662;2023-04-25T10:48:48;11.00;1.00
11894;DHT22;6006;49.696;8.662;2023-04-25T10:51:17;10.90;99.90
11894;DHT22;6006;49.696;8.662;2023-04-25T10:53:45;10.40;1.00
11894;DHT22;6006;49.696;8.662;2023-04-25T10:56:16;10.50;99.90
11894;DHT22;6006;49.696;8.662;2023-04-25T10:58:45;10.10;99.90
11894;DHT22;6006;49.696;8.662;2023-04-25T11:01:13;10.10;99.90
11894;DHT22;6006;49.696;8.662;2023-04-25T11:03:41;10.20;99.90
11894;DHT22;6006;49.696;8.662;2023-04-25T11:06:19;10.00;99.90
11894;DHT22;6006;49.696;8.662;2023-04-25T11:08:50;9.90;1.00
11894;DHT22;6006;49.696;8.662;2023-04-25T11:11:17;9.90;99.90
11894;DHT22;6006;49.696;8.662;2023-04-25T11:13:47;10.00;1.00
11894;DHT22;6006;49.696;8.662;2023-04-25T11:16:14;10.30;1.00
11894;DHT22;6006;49.696;8.662;2023-04-25T11:18:41;10.30;99.90
11894;DHT22;6006;49.696;8.662;2023-04-25T11:21:08;10.50;99.90
11894;DHT22;6006;49.696;8.662;2023-04-25T11:23:35;10.30;99.90
11894;DHT22;6006;49.696;8.662;2023-04-25T11:26:02;10.20;99.90
11894;DHT22;6006;49.696;8.662;2023-04-25T11:28:29;10.30;99.90
11894;DHT22;6006;49.696;8.662;2023-04-25T11:30:58;10.00;99.90
11894;DHT22;6006;49.696;8.662;2023-04-25T11:33:25;10.50;99.90
11894;DHT22;6006;49.696;8.662;2023-04-25T11:35:53;11.00;99.90
11894;DHT22;6006;49.696;8.662;2023-04-25T11:38:21;11.40;1.00
11894;DHT22;6006;49.696;8.662;2023-04-25T11:40:50;11.40;99.90
11894;DHT22;6006;49.696;8.662;2023-04-25T11:43:18;10.70;1.00
11894;DHT22;6006;49.696;8.662;2023-04-25T11:45:46;10.80;1.00
11894;DHT22;6006;49.696;8.662;2023-04-25T11:48:15;11.60;1.00
11894;DHT22;6006;49.696;8.662;2023-04-25T11:50:42;11.60;1.00
11894;DHT22;6006;49.696;8.662;2023-04-25T11:53:10;11.70;1.00
11894;DHT22;6006;49.696;8.662;2023-04-25T11:55:37;12.10;1.00
11894;DHT22;6006;49.696;8.662;2023-04-25T11:58:04;12.30;1.00
11894;DHT22;6006;49.696;8.662;2023-04-25T12:00:31;11.70;1.00
11894;DHT22;6006;49.696;8.662;2023-04-25T12:02:58;11.10;99.90
11894;DHT22;6006;49.696;8.662;2023-04-25T12:05:29;11.70;1.00
11894;DHT22;6006;49.696;8.662;2023-04-25T12:07:56;11.50;1.00
11894;DHT22;6006;49.696;8.662;2023-04-25T12:10:25;11.80;10.10
11894;DHT22;6006;49.696;8.662;2023-04-25T12:12:52;12.30;1.00
11894;DHT22;6006;49.696;8.662;2023-04-25T12:15:23;12.50;1.00
11894;DHT22;6006;49.696;8.662;2023-04-25T12:17:52;11.90;1.00
11894;DHT22;6006;49.696;8.662;2023-04-25T12:20:21;11.60;1.00
11894;DHT22;6006;49.696;8.662;2023-04-25T12:22:51;11.80;1.00
11894;DHT22;6006;49.696;8.662;2023-04-25T12:25:36;12.20;1.00
11894;DHT22;6006;49.696;8.662;2023-04-25T12:28:13;11.80;1.00
11894;DHT22;6006;49.696;8.662;2023-04-25T12:30:57;11.80;1.00
11894;DHT22;6006;49.696;8.662;2023-04-25T12:33:24;11.40;1.00
11894;DHT22;6006;49.696;8.662;2023-04-25T12:35:52;11.40;1.00
11894;DHT22;6006;49.696;8.662;2023-04-25T12:38:25;11.20;99.90
11894;DHT22;6006;49.696;8.662;2023-04-25T12:40:52;10.80;1.00
11894;DHT22;6006;49.696;8.662;2023-04-25T12:43:19;10.90;99.90
11894;DHT22;6006;49.696;8.662;2023-04-25T12:45:47;10.90;1.00
11894;DHT22;6006;49.696;8.662;2023-04-25T12:48:14;11.20;1.00
11894;DHT22;6006;49.696;8.662;2023-04-25T12:50:41;10.90;7.90
11894;DHT22;6006;49.696;8.662;2023-04-25T12:53:08;10.90;99.90
11894;DHT22;6006;49.696;8.662;2023-04-25T12:55:36;11.60;99.90
11894;DHT22;6006;49.696;8.662;2023-04-25T12:58:03;11.60;1.00
11894;DHT22;6006;49.696;8.662;2023-04-25T13:00:29;11.40;1.00
11894;DHT22;6006;49.696;8.662;2023-04-25T13:02:57;11.70;1.00
11894;DHT22;6006;49.696;8.662;2023-04-25T13:05:24;11.80;1.00
11894;DHT22;6006;49.696;8.662;2023-04-25T13:07:51;11.90;1.00
11894;DHT22;6006;49.696;8.662;2023-04-25T13:10:18;11.50;1.00
11894;DHT22;6006;49.696;8.662;2023-04-25T13:12:46;11.50;1.00
11894;DHT22;6006;49.696;8.662;2023-04-25T13:15:14;11.60;1.00
11894;DHT22;6006;49.696;8.662;2023-04-25T13:17:42;11.60;1.00
11894;DHT22;6006;49.696;8.662;2023-04-25T13:20:09;12.00;1.00
11894;DHT22;6006;49.696;8.662;2023-04-25T13:22:37;11.30;1.00
11894;DHT22;6006;49.696;8.662;2023-04-25T13:25:06;11.80;1.00
11894;DHT22;6006;49.696;8.662;2023-04-25T13:27:33;11.60;46.90
11894;DHT22;6006;49.696;8.662;2023-04-25T13:30:03;11.80;1.00
11894;DHT22;6006;49.696;8.662;2023-04-25T13:32:33;12.20;1.00
11894;DHT22;6006;49.696;8.662;2023-04-25T13:35:01;13.30;1.00
11894;DHT22;6006;49.696;8.662;2023-04-25T13:37:29;14.20;99.90
11894;DHT22;6006;49.696;8.662;2023-04-25T13:39:58;13.20;99.90
11894;DHT22;6006;49.696;8.662;2023-04-25T13:42:25;13.20;99.90
11894;DHT22;6006;49.696;8.662;2023-04-25T13:44:52;13.60;99.90
11894;DHT22;6006;49.696;8.662;2023-04-25T13:47:20;13.00;99.90
11894;DHT22;6006;49.696;8.662;2023-04-25T13:49:47;13.20;99.90
11894;DHT22;6006;49.696;8.662;2023-04-25T13:52:14;13.20;99.90
11894;DHT22;6006;49.696;8.662;2023-04-25T13:54:40;12.10;1.00
11894;DHT22;6006;49.696;8.662;2023-04-25T13:57:07;12.60;99.90
11894;DHT22;6006;49.696;8.662;2023-04-25T13:59:35;12.20;99.90
11894;DHT22;6006;49.696;8.662;2023-04-25T14:02:02;11.80;99.90
11894;DHT22;6006;49.696;8.662;2023-04-25T14:04:30;11.60;1.00
11894;DHT22;6006;49.696;8.662;2023-04-25T14:06:58;11.00;1.00
11894;DHT22;6006;49.696;8.662;2023-04-25T14:09:25;10.70;1.00
11894;DHT22;6006;49.696;8.662;2023-04-25T14:11:52;11.60;1.00
11894;DHT22;6006;49.696;8.662;2023-04-25T14:14:20;12.20;99.90
11894;DHT22;6006;49.696;8.662;2023-04-25T14:16:47;12.30;99.90
11894;DHT22;6006;49.696;8.662;2023-04-25T14:19:14;12.00;99.90
11894;DHT22;6006;49.696;8.662;2023-04-25T14:21:42;11.90;99.90
11894;DHT22;6006;49.696;8.662;2023-04-25T14:24:10;11.90;99.90
11894;DHT22;6006;49.696;8.662;2023-04-25T14:26:37;11.60;99.90
11894;DHT22;6006;49.696;8.662;2023-04-25T14:29:05;11.50;99.90
11894;DHT22;6006;49.696;8.662;2023-04-25T14:31:32;11.20;99.90
11894;DHT22;6006;49.696;8.662;2023-04-25T14:33:59;10.80;1.00
11894;DHT22;6006;49.696;8.662;2023-04-25T14:36:26;10.70;1.00
11894;DHT22;6006;49.696;8.662;2023-04-25T14:38:55;10.80;1.00
11894;DHT22;6006;49.696;8.662;2023-04-25T14:41:24;10.80;1.00
11894;DHT22;6006;49.696;8.662;2023-04-25T14:43:51;10.70;1.00
11894;DHT22;6006;49.696;8.662;2023-04-25T14:46:18;10.90;1.00
11894;DHT22;6006;49.696;8.662;2023-04-25T14:48:45;11.00;1.00
11894;DHT22;6006;49.696;8.662;2023-04-25T14:51:12;11.30;1.00
11894;DHT22;6006;49.696;8.662;2023-04-25T14:53:39;11.40;1.00
11894;DHT22;6006;49.696;8.662;2023-04-25T14:56:08;11.30;1.00
11894;DHT22;6006;49.696;8.662;2023-04-25T14:58:35;10.80;1.00
11894;DHT22;6006;49.696;8.662;2023-04-25T15:01:03;10.80;1.00
11894;DHT22;6006;49.696;8.662;2023-04-25T15:03:30;11.10;1.00
11894;DHT22;6006;49.696;8.662;2023-04-25T15:05:57;11.10;1.00
11894;DHT22;6006;49.696;8.662;2023-04-25T15:08:24;11.10;99.90
11894;DHT22;6006;49.696;8.662;2023-04-25T15:10:52;11.00;1.00
11894;DHT22;6006;49.696;8.662;2023-04-25T15:13:20;11.10;1.00
11894;DHT22;6006;49.696;8.662;2023-04-25T15:15:47;11.20;1.00
11894;DHT22;6006;49.696;8.662;2023-04-25T15:18:16;11.50;99.90
11894;DHT22;6006;49.696;8.662;2023-04-25T15:20:43;11.80;1.00
11894;DHT22;6006;49.696;8.662;2023-04-25T15:23:11;11.50;99.90
11894;DHT22;6006;49.696;8.662;2023-04-25T15:25:37;11.60;1.00
11894;DHT22;6006;49.696;8.662;2023-04-25T15:28:04;11.50;99.90
11894;DHT22;6006;49.696;8.662;2023-04-25T15:30:32;11.50;99.90
11894;DHT22;6006;49.696;8.662;2023-04-25T15:32:59;11.90;99.90
11894;DHT22;6006;49.696;8.662;2023-04-25T15:35:26;11.90;99.90
11894;DHT22;6006;49.696;8.662;2023-04-25T15:37:53;12.10;1.00
11894;DHT22;6006;49.696;8.662;2023-04-25T15:40:20;11.70;99.90
11894;DHT22;6006;49.696;8.662;2023-04-25T15:42:48;11.50;99.90
11894;DHT22;6006;49.696;8.662;2023-04-25T15:45:16;11.20;99.90
11894;DHT22;6006;49.696;8.662;2023-04-25T15:47:45;11.50;99.90
11894;DHT22;6006;49.696;8.662;2023-04-25T15:50:13;11.30;99.90
11894;DHT22;6006;49.696;8.662;2023-04-25T15:52:40;11.10;99.90
11894;DHT22;6006;49.696;8.662;2023-04-25T15:55:08;11.30;99.90
11894;DHT22;6006;49.696;8.662;2023-04-25T15:57:36;11.10;99.90
11894;DHT22;6006;49.696;8.662;2023-04-25T16:00:05;11.10;99.90
11894;DHT22;6006;49.696;8.662;2023-04-25T16:02:35;11.20;99.90